createdAt,value
2023-01-25T00:00:01.794Z,1.60
2023-01-25T00:02:28.787Z,1.60
2023-01-25T00:04:55.622Z,1.60
2023-01-25T00:07:23.625Z,1.60
2023-01-25T00:09:50.299Z,1.60
2023-01-25T00:12:16.999Z,1.70
2023-01-25T00:14:43.726Z,1.60
2023-01-25T00:17:10.471Z,1.70
2023-01-25T00:19:37.195Z,1.60
2023-01-25T00:22:03.899Z,1.60
2023-01-25T00:24:30.669Z,1.60
2023-01-25T00:26:57.351Z,1.60
2023-01-25T00:29:24.126Z,1.60
2023-01-25T00:31:57.049Z,1.60
2023-01-25T00:34:26.557Z,1.60
2023-01-25T00:37:12.681Z,1.60
2023-01-25T00:39:39.556Z,1.70
2023-01-25T00:42:10.853Z,1.60
2023-01-25T00:44:38.718Z,1.70
2023-01-25T00:47:05.979Z,1.70
2023-01-25T00:49:33.496Z,1.70
2023-01-25T00:52:00.472Z,1.70
2023-01-25T00:54:27.448Z,1.70
2023-01-25T00:56:56.427Z,1.70
2023-01-25T00:59:24.632Z,1.70
2023-01-25T01:01:52.459Z,1.70
2023-01-25T01:04:19.974Z,1.70
2023-01-25T01:06:47.056Z,1.60
2023-01-25T01:09:16.453Z,1.60
2023-01-25T01:11:43.191Z,1.70
2023-01-25T01:14:09.999Z,1.70
2023-01-25T01:16:36.921Z,1.60
2023-01-25T01:19:04.453Z,1.60
2023-01-25T01:21:31.261Z,1.60
2023-01-25T01:23:58.173Z,1.50
2023-01-25T01:26:24.999Z,1.50
2023-01-25T01:28:51.752Z,1.40
2023-01-25T01:31:21.058Z,1.40
2023-01-25T01:33:52.939Z,1.40
2023-01-25T01:36:21.739Z,1.40
2023-01-25T01:38:48.568Z,1.40
2023-01-25T01:41:16.123Z,1.40
2023-01-25T01:43:43.352Z,1.40
2023-01-25T01:46:22.308Z,1.40
2023-01-25T01:49:11.410Z,1.40
2023-01-25T01:51:50.461Z,1.40
2023-01-25T01:54:32.641Z,1.40
2023-01-25T01:57:23.932Z,1.40
2023-01-25T01:59:55.519Z,1.40
2023-01-25T02:02:25.990Z,1.50
2023-01-25T02:04:55.968Z,1.50
2023-01-25T02:07:39.274Z,1.50
2023-01-25T02:10:09.658Z,1.50
2023-01-25T02:12:38.197Z,1.50
2023-01-25T02:15:05.793Z,1.40
2023-01-25T02:17:35.625Z,1.40
2023-01-25T02:20:15.863Z,1.40
2023-01-25T02:22:54.677Z,1.40
2023-01-25T02:25:21.504Z,1.40
2023-01-25T02:28:06.605Z,1.40
2023-01-25T02:30:34.040Z,1.40
2023-01-25T02:33:00.926Z,1.30
2023-01-25T02:35:47.341Z,1.30
2023-01-25T02:38:17.249Z,1.30
2023-01-25T02:41:01.915Z,1.30
2023-01-25T02:43:31.117Z,1.40
2023-01-25T02:46:10.756Z,1.30
2023-01-25T02:48:37.619Z,1.40
2023-01-25T02:51:08.266Z,1.40
2023-01-25T02:53:35.290Z,1.30
2023-01-25T02:56:02.146Z,1.40
2023-01-25T02:58:28.864Z,1.40
2023-01-25T03:00:57.425Z,1.40
2023-01-25T03:03:24.181Z,1.40
2023-01-25T03:05:50.959Z,1.50
2023-01-25T03:08:17.760Z,1.50
2023-01-25T03:10:44.444Z,1.50
2023-01-25T03:13:11.281Z,1.60
2023-01-25T03:15:38.098Z,1.60
2023-01-25T03:18:04.887Z,1.60
2023-01-25T03:20:31.617Z,1.60
2023-01-25T03:22:58.312Z,1.60
2023-01-25T03:25:25.031Z,1.60
2023-01-25T03:27:51.784Z,1.60
2023-01-25T03:30:18.548Z,1.60
2023-01-25T03:32:45.252Z,1.60
2023-01-25T03:35:11.932Z,1.50
2023-01-25T03:37:38.636Z,1.60
2023-01-25T03:40:06.019Z,1.50
2023-01-25T03:42:32.750Z,1.50
2023-01-25T03:44:59.435Z,1.60
2023-01-25T03:47:26.474Z,1.50
2023-01-25T03:49:53.243Z,1.50
2023-01-25T03:52:19.991Z,1.50
2023-01-25T03:54:46.695Z,1.50
2023-01-25T03:57:13.453Z,1.40
2023-01-25T03:59:40.159Z,1.50
2023-01-25T04:02:06.892Z,1.50
2023-01-25T04:04:33.635Z,1.40
2023-01-25T04:07:00.318Z,1.40
2023-01-25T04:09:27.030Z,1.40
2023-01-25T04:11:53.783Z,1.40
2023-01-25T04:14:31.803Z,1.50
2023-01-25T04:17:08.248Z,1.40
2023-01-25T04:19:34.966Z,1.40
2023-01-25T04:22:01.701Z,1.40
2023-01-25T04:24:28.492Z,1.40
2023-01-25T04:26:55.288Z,1.40
2023-01-25T04:29:31.650Z,1.40
2023-01-25T04:32:06.433Z,1.40
2023-01-25T04:34:33.168Z,1.40
2023-01-25T04:36:59.852Z,1.40
2023-01-25T04:39:26.591Z,1.40
2023-01-25T04:41:53.264Z,1.40
2023-01-25T04:44:19.973Z,1.40
2023-01-25T04:46:46.684Z,1.40
2023-01-25T04:49:13.365Z,1.40
2023-01-25T04:51:40.054Z,1.30
2023-01-25T04:54:06.745Z,1.30
2023-01-25T04:56:33.575Z,1.40
2023-01-25T04:59:00.249Z,1.30
2023-01-25T05:01:27.059Z,1.40
2023-01-25T05:03:53.776Z,1.40
2023-01-25T05:06:20.494Z,1.40
2023-01-25T05:08:47.173Z,1.40
2023-01-25T05:11:13.888Z,1.40
2023-01-25T05:13:40.571Z,1.40
2023-01-25T05:16:09.021Z,1.40
2023-01-25T05:18:47.515Z,1.40
2023-01-25T05:21:33.918Z,1.40
2023-01-25T05:24:00.668Z,1.40
2023-01-25T05:26:46.444Z,1.40
2023-01-25T05:29:13.239Z,1.40
2023-01-25T05:31:39.965Z,1.40
2023-01-25T05:34:06.721Z,1.40
2023-01-25T05:36:33.405Z,1.40
2023-01-25T05:39:00.098Z,1.40
2023-01-25T05:41:26.846Z,1.40
2023-01-25T05:43:53.541Z,1.40
2023-01-25T05:46:20.343Z,1.40
2023-01-25T05:48:48.316Z,1.40
2023-01-25T05:51:15.263Z,1.30
2023-01-25T05:53:41.942Z,1.30
2023-01-25T05:56:10.709Z,1.30
2023-01-25T05:58:38.530Z,1.20
2023-01-25T06:01:06.840Z,1.20
2023-01-25T06:03:33.956Z,1.20
2023-01-25T06:06:02.837Z,1.20
2023-01-25T06:08:30.454Z,1.20
2023-01-25T06:10:57.752Z,1.20
2023-01-25T06:13:25.197Z,1.20
2023-01-25T06:15:56.293Z,1.20
2023-01-25T06:18:24.519Z,1.10
2023-01-25T06:20:51.685Z,1.10
2023-01-25T06:23:18.829Z,1.10
2023-01-25T06:25:45.501Z,1.10
2023-01-25T06:28:12.187Z,1.10
2023-01-25T06:30:38.917Z,1.00
2023-01-25T06:33:05.641Z,1.10
2023-01-25T06:35:33.671Z,1.10
2023-01-25T06:38:00.993Z,1.00
2023-01-25T06:40:29.015Z,1.10
2023-01-25T06:42:55.840Z,1.10
2023-01-25T06:45:22.668Z,1.00
2023-01-25T06:47:52.015Z,1.00
2023-01-25T06:50:18.853Z,1.00
2023-01-25T06:52:54.947Z,1.00
2023-01-25T06:55:22.054Z,1.00
2023-01-25T06:57:49.378Z,1.00
2023-01-25T07:00:17.122Z,0.90
2023-01-25T07:02:44.105Z,0.90
2023-01-25T07:05:11.397Z,0.90
2023-01-25T07:07:38.340Z,0.90
2023-01-25T07:10:05.383Z,0.90
2023-01-25T07:12:32.326Z,0.90
2023-01-25T07:14:59.160Z,0.90
2023-01-25T07:17:25.897Z,0.90
2023-01-25T07:19:52.637Z,0.90
2023-01-25T07:22:19.343Z,0.90
2023-01-25T07:24:49.992Z,0.90
2023-01-25T07:27:17.757Z,0.90
2023-01-25T07:29:44.555Z,0.90
2023-01-25T07:32:14.507Z,0.90
2023-01-25T07:34:41.364Z,0.90
2023-01-25T07:37:09.293Z,0.90
2023-01-25T07:39:36.419Z,1.00
2023-01-25T07:42:03.227Z,1.00
2023-01-25T07:44:29.952Z,1.00
2023-01-25T07:46:56.746Z,1.00
2023-01-25T07:49:23.444Z,1.00
2023-01-25T07:51:50.212Z,1.00
2023-01-25T07:54:17.263Z,1.00
2023-01-25T07:56:44.590Z,1.00
2023-01-25T07:59:11.432Z,1.00
2023-01-25T08:01:39.947Z,1.00
2023-01-25T08:04:07.260Z,1.00
2023-01-25T08:06:38.930Z,0.90
2023-01-25T08:09:12.026Z,1.00
2023-01-25T08:11:39.023Z,0.90
2023-01-25T08:14:05.791Z,1.00
2023-01-25T08:16:32.921Z,0.90
2023-01-25T08:19:01.908Z,0.90
2023-01-25T08:21:30.128Z,0.90
2023-01-25T08:24:02.453Z,0.90
2023-01-25T08:26:29.482Z,0.90
2023-01-25T08:28:57.893Z,1.00
2023-01-25T08:31:30.244Z,1.00
2023-01-25T08:33:57.883Z,1.00
2023-01-25T08:36:24.746Z,1.00
2023-01-25T08:38:56.571Z,1.10
2023-01-25T08:41:23.610Z,1.10
2023-01-25T08:43:53.481Z,1.10
2023-01-25T08:46:21.324Z,1.20
2023-01-25T08:48:48.271Z,1.20
2023-01-25T08:51:17.004Z,1.20
2023-01-25T08:53:44.036Z,1.20
2023-01-25T08:56:14.080Z,1.20
2023-01-25T08:58:43.681Z,1.20
2023-01-25T09:01:12.159Z,1.20
2023-01-25T09:03:44.104Z,1.20
2023-01-25T09:06:12.238Z,1.20
2023-01-25T09:08:39.437Z,1.20
2023-01-25T09:11:15.056Z,1.20
2023-01-25T09:13:45.208Z,1.20
2023-01-25T09:16:13.949Z,1.20
2023-01-25T09:18:42.370Z,1.20
2023-01-25T09:21:11.923Z,1.20
2023-01-25T09:23:50.800Z,1.20
2023-01-25T09:26:19.326Z,1.20
2023-01-25T09:28:53.878Z,1.20
2023-01-25T09:31:23.807Z,1.20
2023-01-25T09:33:52.570Z,1.20
2023-01-25T09:36:20.627Z,1.20
2023-01-25T09:38:47.508Z,1.30
2023-01-25T09:41:36.760Z,1.30
2023-01-25T09:44:47.457Z,1.30
2023-01-25T09:47:29.173Z,1.40
2023-01-25T09:50:24.418Z,1.40
2023-01-25T09:53:07.375Z,1.40
2023-01-25T09:55:34.989Z,1.40
2023-01-25T09:58:04.142Z,1.40
2023-01-25T10:00:38.648Z,1.40
2023-01-25T10:03:21.167Z,1.40
2023-01-25T10:05:50.651Z,1.40
2023-01-25T10:08:39.341Z,1.30
2023-01-25T10:11:21.542Z,1.30
2023-01-25T10:13:49.032Z,1.30
2023-01-25T10:16:32.029Z,1.30
2023-01-25T10:19:24.776Z,1.30
2023-01-25T10:21:57.458Z,1.40
2023-01-25T10:24:31.313Z,1.40
2023-01-25T10:27:11.377Z,1.40
2023-01-25T10:29:39.475Z,1.40
2023-01-25T10:32:18.710Z,1.40
2023-01-25T10:34:56.708Z,1.40
2023-01-25T10:37:33.192Z,1.40
2023-01-25T10:40:24.604Z,1.40
2023-01-25T10:43:00.777Z,1.30
2023-01-25T10:45:27.526Z,1.30
2023-01-25T10:48:09.249Z,1.30
2023-01-25T10:50:39.561Z,1.30
2023-01-25T10:53:20.177Z,1.30
2023-01-25T10:56:23.962Z,1.40
2023-01-25T10:58:54.443Z,1.40
2023-01-25T11:01:28.633Z,1.40
2023-01-25T11:03:55.861Z,1.40
2023-01-25T11:06:36.020Z,1.40
2023-01-25T11:09:22.649Z,1.40
2023-01-25T11:11:58.243Z,1.40
2023-01-25T11:14:31.147Z,1.30
2023-01-25T11:16:59.841Z,1.30
2023-01-25T11:19:40.735Z,1.30
2023-01-25T11:22:29.218Z,1.30
2023-01-25T11:24:56.071Z,1.40
2023-01-25T11:27:27.602Z,1.40
2023-01-25T11:30:10.882Z,1.40
2023-01-25T11:32:41.379Z,1.40
2023-01-25T11:35:16.934Z,1.40
2023-01-25T11:37:56.548Z,1.40
2023-01-25T11:40:32.260Z,1.50
2023-01-25T11:43:51.337Z,1.50
2023-01-25T11:46:30.215Z,1.50
2023-01-25T11:49:14.087Z,1.50
2023-01-25T11:51:54.045Z,1.50
2023-01-25T11:54:45.748Z,1.50
2023-01-25T11:57:45.206Z,1.40
2023-01-25T12:00:36.302Z,1.40
2023-01-25T12:03:36.332Z,1.40
2023-01-25T12:06:39.438Z,1.40
2023-01-25T12:09:32.577Z,1.40
2023-01-25T12:12:14.386Z,1.40
2023-01-25T12:14:59.911Z,1.50
2023-01-25T12:17:53.268Z,1.40
2023-01-25T12:20:35.028Z,1.40
2023-01-25T12:23:16.629Z,1.40
2023-01-25T12:26:01.161Z,1.40
2023-01-25T12:28:33.824Z,1.40
2023-01-25T12:31:09.609Z,1.40
2023-01-25T12:34:03.869Z,1.40
2023-01-25T12:36:43.092Z,1.50
2023-01-25T12:39:25.231Z,1.40
2023-01-25T12:42:16.614Z,1.40
2023-01-25T12:44:48.162Z,1.40
2023-01-25T12:47:36.365Z,1.40
2023-01-25T12:50:13.553Z,1.40
2023-01-25T12:52:54.756Z,1.40
2023-01-25T12:55:21.869Z,1.40
2023-01-25T12:58:06.336Z,1.40
2023-01-25T13:00:56.684Z,1.30
2023-01-25T13:04:01.448Z,1.30
2023-01-25T13:07:02.363Z,1.30
2023-01-25T13:09:56.293Z,1.30
2023-01-25T13:12:24.614Z,1.30
2023-01-25T13:14:51.673Z,1.20
2023-01-25T13:17:32.896Z,1.30
2023-01-25T13:20:00.538Z,1.30
2023-01-25T13:22:45.779Z,1.30
2023-01-25T13:25:22.879Z,1.30
2023-01-25T13:27:49.777Z,1.30
2023-01-25T13:30:16.460Z,1.30
2023-01-25T13:32:55.519Z,1.30
2023-01-25T13:35:31.386Z,1.30
2023-01-25T13:37:59.577Z,1.30
2023-01-25T13:40:33.640Z,1.30
2023-01-25T13:43:26.954Z,1.30
2023-01-25T13:45:53.851Z,1.20
2023-01-25T13:48:26.333Z,1.20
2023-01-25T13:51:00.644Z,1.20
2023-01-25T13:53:35.236Z,1.30
2023-01-25T13:56:02.663Z,1.20
2023-01-25T13:58:38.254Z,1.30
2023-01-25T14:01:16.241Z,1.30
2023-01-25T14:03:52.707Z,1.20
2023-01-25T14:06:25.463Z,1.20
2023-01-25T14:08:53.831Z,1.20
2023-01-25T14:11:29.312Z,1.20
2023-01-25T14:14:25.786Z,1.20
2023-01-25T14:17:16.904Z,1.20
2023-01-25T14:19:51.657Z,1.10
2023-01-25T14:22:27.981Z,1.20
2023-01-25T14:25:10.637Z,1.20
2023-01-25T14:27:45.990Z,1.10
2023-01-25T14:30:17.264Z,1.10
2023-01-25T14:32:44.106Z,1.10
2023-01-25T14:35:43.051Z,1.10
2023-01-25T14:38:28.479Z,1.00
2023-01-25T14:40:59.071Z,1.00
2023-01-25T14:43:26.843Z,1.00
2023-01-25T14:45:53.778Z,1.00
2023-01-25T14:49:08.227Z,1.00
2023-01-25T14:51:39.734Z,0.90
2023-01-25T14:54:15.947Z,0.90
2023-01-25T14:56:43.891Z,0.80
2023-01-25T14:59:26.093Z,0.80
2023-01-25T15:01:55.066Z,0.90
2023-01-25T15:04:22.324Z,0.90
2023-01-25T15:06:54.183Z,0.90
2023-01-25T15:09:39.624Z,1.00
2023-01-25T15:12:28.387Z,1.00
2023-01-25T15:14:57.121Z,1.00
2023-01-25T15:17:45.431Z,1.00
2023-01-25T15:20:38.677Z,1.00
2023-01-25T15:23:26.112Z,1.00
2023-01-25T15:25:58.200Z,1.00
2023-01-25T15:28:27.651Z,1.00
2023-01-25T15:30:55.181Z,1.00
2023-01-25T15:33:28.071Z,1.10
2023-01-25T15:35:55.193Z,1.00
2023-01-25T15:38:22.801Z,1.00
2023-01-25T15:40:49.581Z,1.00
2023-01-25T15:43:18.072Z,1.00
2023-01-25T15:45:47.620Z,1.00
2023-01-25T15:48:22.654Z,1.00
2023-01-25T15:50:49.909Z,0.90
2023-01-25T15:53:18.258Z,0.90
2023-01-25T15:55:47.477Z,1.00
2023-01-25T15:58:23.592Z,0.90
2023-01-25T16:00:50.493Z,0.90
2023-01-25T16:03:20.232Z,0.90
2023-01-25T16:05:51.546Z,0.90
2023-01-25T16:08:20.986Z,0.90
2023-01-25T16:10:48.049Z,0.90
2023-01-25T16:13:14.911Z,0.90
2023-01-25T16:15:42.375Z,1.00
2023-01-25T16:18:14.348Z,0.90
2023-01-25T16:20:41.473Z,0.90
2023-01-25T16:23:08.477Z,0.90
2023-01-25T16:25:35.181Z,0.90
2023-01-25T16:28:01.955Z,0.90
2023-01-25T16:30:31.143Z,0.90
2023-01-25T16:32:57.899Z,0.90
2023-01-25T16:35:24.612Z,1.00
2023-01-25T16:37:51.405Z,1.00
2023-01-25T16:40:24.588Z,0.90
2023-01-25T16:42:52.017Z,0.90
2023-01-25T16:45:21.875Z,0.90
2023-01-25T16:47:48.688Z,0.80
2023-01-25T16:50:17.950Z,0.80
2023-01-25T16:52:45.934Z,0.80
2023-01-25T16:55:13.784Z,0.80
2023-01-25T16:57:43.470Z,0.80
2023-01-25T17:00:13.174Z,0.70
2023-01-25T17:02:49.709Z,0.70
2023-01-25T17:05:23.936Z,0.70
2023-01-25T17:07:51.593Z,0.70
2023-01-25T17:10:18.356Z,0.70
2023-01-25T17:12:45.882Z,0.70
2023-01-25T17:15:12.578Z,0.70
2023-01-25T17:17:39.334Z,0.70
2023-01-25T17:20:06.515Z,0.70
2023-01-25T17:22:37.375Z,0.80
2023-01-25T17:25:05.491Z,0.80
2023-01-25T17:27:32.402Z,0.80
2023-01-25T17:29:59.265Z,0.80
2023-01-25T17:32:26.105Z,0.80
2023-01-25T17:34:53.761Z,0.80
2023-01-25T17:37:20.469Z,0.80
2023-01-25T17:39:48.464Z,0.70
2023-01-25T17:42:15.902Z,0.70
2023-01-25T17:44:42.884Z,0.70
2023-01-25T17:47:11.841Z,0.70
2023-01-25T17:49:38.582Z,0.70
2023-01-25T17:52:05.364Z,0.70
2023-01-25T17:54:32.193Z,0.80
2023-01-25T17:56:59.002Z,0.70
2023-01-25T17:59:25.701Z,0.80
2023-01-25T18:01:52.517Z,0.80
2023-01-25T18:04:20.414Z,0.80
2023-01-25T18:06:47.204Z,0.80
2023-01-25T18:09:14.127Z,0.80
2023-01-25T18:11:41.094Z,0.90
2023-01-25T18:14:12.701Z,0.90
2023-01-25T18:16:40.607Z,0.90
2023-01-25T18:19:08.301Z,0.90
2023-01-25T18:21:35.514Z,0.80
2023-01-25T18:24:08.272Z,0.80
2023-01-25T18:26:37.052Z,0.80
2023-01-25T18:29:09.599Z,0.80
2023-01-25T18:31:36.999Z,0.80
2023-01-25T18:34:04.257Z,0.70
2023-01-25T18:36:31.159Z,0.70
2023-01-25T18:38:59.881Z,0.70
2023-01-25T18:41:27.089Z,0.70
2023-01-25T18:43:53.825Z,0.70
2023-01-25T18:46:20.630Z,0.70
2023-01-25T18:48:47.397Z,0.70
2023-01-25T18:51:19.178Z,0.70
2023-01-25T18:53:47.654Z,0.70
2023-01-25T18:56:20.049Z,0.70
2023-01-25T18:58:47.489Z,0.70
2023-01-25T19:01:22.302Z,0.70
2023-01-25T19:03:50.473Z,0.80
2023-01-25T19:06:19.083Z,0.80
2023-01-25T19:08:51.711Z,0.80
2023-01-25T19:11:22.235Z,0.80
2023-01-25T19:13:50.114Z,0.70
2023-01-25T19:16:19.805Z,0.80
2023-01-25T19:18:49.890Z,0.70
2023-01-25T19:21:17.932Z,0.70
2023-01-25T19:23:45.365Z,0.70
2023-01-25T19:26:14.547Z,0.70
2023-01-25T19:28:41.804Z,0.70
2023-01-25T19:34:36.143Z,0.60
2023-01-25T19:37:02.993Z,0.60
2023-01-25T19:39:29.788Z,0.60
2023-01-25T19:41:57.699Z,0.50
2023-01-25T19:44:25.229Z,0.50
2023-01-25T19:46:52.070Z,0.50
2023-01-25T19:49:19.067Z,0.50
2023-01-25T19:51:52.633Z,0.50
2023-01-25T19:54:19.890Z,0.50
2023-01-25T19:56:48.903Z,0.50
2023-01-25T19:59:21.378Z,0.50
2023-01-25T20:01:48.381Z,0.60
2023-01-25T20:04:20.487Z,0.60
2023-01-25T20:06:48.375Z,0.70
2023-01-25T20:09:17.423Z,0.70
2023-01-25T20:11:44.611Z,0.70
2023-01-25T20:14:13.136Z,0.80
2023-01-25T20:16:40.441Z,0.80
2023-01-25T20:19:10.668Z,0.80
2023-01-25T20:21:39.579Z,0.80
2023-01-25T20:24:07.356Z,0.90
2023-01-25T20:26:38.888Z,0.90
2023-01-25T20:29:07.118Z,0.90
2023-01-25T20:31:42.272Z,0.90
2023-01-25T20:34:17.878Z,0.90
2023-01-25T20:36:45.257Z,0.90
2023-01-25T20:39:15.136Z,0.90
2023-01-25T20:41:42.510Z,0.90
2023-01-25T20:44:11.236Z,0.90
2023-01-25T20:46:39.832Z,0.80
2023-01-25T20:49:13.374Z,0.80
2023-01-25T20:51:40.149Z,0.90
2023-01-25T20:54:06.868Z,0.90
2023-01-25T20:56:33.577Z,0.90
2023-01-25T20:59:00.392Z,0.90
2023-01-25T21:01:29.689Z,1.00
2023-01-25T21:03:57.973Z,1.00
2023-01-25T21:06:26.305Z,1.00
2023-01-25T21:08:53.387Z,1.00
2023-01-25T21:11:20.578Z,1.00
2023-01-25T21:13:47.893Z,1.00
2023-01-25T21:16:21.704Z,1.00
2023-01-25T21:18:50.991Z,1.00
2023-01-25T21:21:44.166Z,1.00
2023-01-25T21:24:11.894Z,1.00
2023-01-25T21:26:38.722Z,0.90
2023-01-25T21:29:06.966Z,0.90
2023-01-25T21:31:39.546Z,0.90
2023-01-25T21:34:06.804Z,0.90
2023-01-25T21:36:33.753Z,1.00
2023-01-25T21:39:00.765Z,1.00
2023-01-25T21:41:30.240Z,0.90
2023-01-25T21:44:17.103Z,1.00
2023-01-25T21:46:49.241Z,1.00
2023-01-25T21:49:41.336Z,1.00
2023-01-25T21:52:08.193Z,0.90
2023-01-25T21:54:36.982Z,0.90
2023-01-25T21:57:08.784Z,0.90
2023-01-25T21:59:36.721Z,0.90
2023-01-25T22:02:04.953Z,0.90
2023-01-25T22:04:35.881Z,0.80
2023-01-25T22:07:03.814Z,0.90
2023-01-25T22:09:30.586Z,0.90
2023-01-25T22:11:57.634Z,0.90
2023-01-25T22:14:24.475Z,0.90
2023-01-25T22:16:51.985Z,0.90
2023-01-25T22:19:19.108Z,0.80
2023-01-25T22:21:45.919Z,0.80
2023-01-25T22:24:12.784Z,0.80
2023-01-25T22:26:45.644Z,0.70
2023-01-25T22:29:13.217Z,0.80
2023-01-25T22:31:40.053Z,0.80
2023-01-25T22:34:06.888Z,0.80
2023-01-25T22:36:33.908Z,0.80
2023-01-25T22:39:00.861Z,0.80
2023-01-25T22:41:30.203Z,0.90
2023-01-25T22:43:57.917Z,0.80
2023-01-25T22:46:27.392Z,0.90
2023-01-25T22:48:54.261Z,0.90
2023-01-25T22:51:29.439Z,0.90
2023-01-25T22:53:58.045Z,0.90
2023-01-25T22:56:31.774Z,1.00
2023-01-25T22:58:59.825Z,1.00
2023-01-25T23:01:29.334Z,1.00
2023-01-25T23:03:56.999Z,0.90
2023-01-25T23:06:26.561Z,1.00
2023-01-25T23:08:59.741Z,1.00
2023-01-25T23:11:32.370Z,0.90
2023-01-25T23:14:18.061Z,0.90
2023-01-25T23:16:44.989Z,0.90
2023-01-25T23:19:11.774Z,0.90
2023-01-25T23:21:38.488Z,0.80
2023-01-25T23:24:05.719Z,0.80
2023-01-25T23:26:37.862Z,0.80
2023-01-25T23:29:07.621Z,0.80
2023-01-25T23:31:34.499Z,0.80
2023-01-25T23:34:04.460Z,0.80
2023-01-25T23:36:38.527Z,0.80
2023-01-25T23:39:05.583Z,0.80
2023-01-25T23:41:32.400Z,0.80
2023-01-25T23:43:59.716Z,0.80
2023-01-25T23:46:28.250Z,0.80
2023-01-25T23:48:55.214Z,0.80
2023-01-25T23:51:22.267Z,0.80
2023-01-25T23:53:49.091Z,0.80
2023-01-25T23:56:20.148Z,0.80
2023-01-25T23:58:47.681Z,0.80
